createdAt,value
2022-11-16T00:01:25.881Z,14.83
2022-11-16T00:03:54.642Z,15.90
2022-11-16T00:06:21.984Z,14.50
2022-11-16T00:09:10.470Z,13.30
2022-11-16T00:11:37.931Z,15.80
2022-11-16T00:14:05.433Z,15.07
2022-11-16T00:16:31.910Z,15.43
2022-11-16T00:19:00.663Z,15.40
2022-11-16T00:21:27.680Z,15.83
2022-11-16T00:23:54.426Z,14.80
2022-11-16T00:26:21.784Z,15.17
2022-11-16T00:28:48.775Z,16.13
2022-11-16T00:31:15.351Z,15.63
2022-11-16T00:33:41.780Z,14.63
2022-11-16T00:36:11.777Z,14.60
2022-11-16T00:38:38.761Z,15.20
2022-11-16T00:41:05.818Z,14.20
2022-11-16T00:43:32.778Z,14.90
2022-11-16T00:45:59.139Z,15.50
2022-11-16T00:48:25.842Z,14.40
2022-11-16T00:50:52.378Z,16.73
2022-11-16T00:53:20.263Z,16.07
2022-11-16T00:55:48.366Z,17.73
2022-11-16T00:58:15.517Z,14.57
2022-11-16T01:00:43.365Z,16.30
2022-11-16T01:03:10.008Z,16.77
2022-11-16T01:05:36.844Z,16.23
2022-11-16T01:08:03.476Z,16.00
2022-11-16T01:10:30.464Z,18.10
2022-11-16T01:12:57.283Z,16.60
2022-11-16T01:15:26.229Z,16.20
2022-11-16T01:17:54.862Z,17.67
2022-11-16T01:20:24.143Z,18.00
2022-11-16T01:22:50.605Z,17.93
2022-11-16T01:25:17.131Z,16.83
2022-11-16T01:27:44.116Z,17.03
2022-11-16T01:30:13.656Z,17.80
2022-11-16T01:32:40.092Z,16.93
2022-11-16T01:35:07.541Z,18.10
2022-11-16T01:37:33.894Z,17.23
2022-11-16T01:40:00.709Z,18.70
2022-11-16T01:42:28.937Z,19.27
2022-11-16T01:45:06.600Z,18.10
2022-11-16T01:47:33.095Z,16.90
2022-11-16T01:50:06.836Z,17.80
2022-11-16T01:52:36.492Z,16.10
2022-11-16T01:55:04.139Z,17.90
2022-11-16T01:57:37.811Z,17.97
2022-11-16T02:00:07.666Z,18.60
2022-11-16T02:02:34.220Z,18.50
2022-11-16T02:05:02.436Z,18.03
2022-11-16T02:08:12.898Z,19.60
2022-11-16T02:10:48.861Z,17.63
2022-11-16T02:13:33.955Z,17.33
2022-11-16T02:16:12.709Z,17.03
2022-11-16T02:18:55.814Z,17.43
2022-11-16T02:21:31.273Z,18.87
2022-11-16T02:24:11.578Z,17.07
2022-11-16T02:27:15.445Z,18.37
2022-11-16T02:29:45.739Z,18.50
2022-11-16T02:32:19.194Z,17.63
2022-11-16T02:35:01.139Z,17.00
2022-11-16T02:37:31.992Z,19.17
2022-11-16T02:40:00.575Z,18.77
2022-11-16T02:42:35.760Z,18.37
2022-11-16T02:45:05.540Z,18.13
2022-11-16T02:47:34.464Z,18.10
2022-11-16T02:50:09.356Z,18.70
2022-11-16T02:52:37.086Z,17.27
2022-11-16T02:55:04.311Z,16.87
2022-11-16T02:57:42.329Z,16.20
2022-11-16T03:00:15.836Z,17.50
2022-11-16T03:03:16.858Z,18.80
2022-11-16T03:06:11.474Z,17.97
2022-11-16T03:08:55.092Z,17.70
2022-11-16T03:11:40.046Z,17.90
2022-11-16T03:14:11.775Z,18.07
2022-11-16T03:16:43.596Z,18.17
2022-11-16T03:19:14.044Z,18.50
2022-11-16T03:21:45.407Z,19.10
2022-11-16T03:24:11.887Z,20.27
2022-11-16T03:26:51.158Z,20.57
2022-11-16T03:29:40.422Z,19.33
2022-11-16T03:32:16.454Z,20.17
2022-11-16T03:34:49.812Z,16.90
2022-11-16T03:37:16.463Z,19.93
2022-11-16T03:39:44.239Z,19.90
2022-11-16T03:42:14.382Z,21.23
2022-11-16T03:44:42.442Z,18.70
2022-11-16T03:47:08.791Z,21.27
2022-11-16T03:49:35.192Z,20.57
2022-11-16T03:52:01.556Z,19.90
2022-11-16T03:54:27.914Z,20.13
2022-11-16T03:56:54.370Z,19.80
2022-11-16T03:59:20.781Z,20.80
2022-11-16T04:01:47.114Z,21.17
2022-11-16T04:04:34.038Z,21.23
2022-11-16T04:07:18.880Z,21.80
2022-11-16T04:10:03.862Z,22.43
2022-11-16T04:12:48.613Z,20.60
2022-11-16T04:15:33.290Z,21.67
2022-11-16T04:18:18.146Z,21.80
2022-11-16T04:21:05.401Z,21.00
2022-11-16T04:23:50.385Z,20.43
2022-11-16T04:26:16.882Z,19.17
2022-11-16T04:28:43.270Z,20.60
2022-11-16T04:31:28.331Z,20.07
2022-11-16T04:34:13.249Z,20.20
2022-11-16T04:36:57.910Z,20.93
2022-11-16T04:39:24.571Z,21.17
2022-11-16T04:42:09.590Z,22.13
2022-11-16T04:44:55.350Z,21.63
2022-11-16T04:47:21.776Z,19.93
2022-11-16T04:49:48.276Z,18.23
2022-11-16T04:52:14.710Z,21.10
2022-11-16T04:54:41.077Z,21.20
2022-11-16T04:57:07.422Z,21.00
2022-11-16T04:59:33.802Z,22.50
2022-11-16T05:02:09.380Z,19.80
2022-11-16T05:04:37.447Z,22.17
2022-11-16T05:07:04.626Z,20.70
2022-11-16T05:09:31.283Z,21.40
2022-11-16T05:11:57.919Z,21.10
2022-11-16T05:14:24.321Z,21.17
2022-11-16T05:16:51.309Z,22.90
2022-11-16T05:19:36.424Z,23.60
2022-11-16T05:22:02.756Z,21.27
2022-11-16T05:24:35.231Z,22.23
2022-11-16T05:27:04.496Z,22.67
2022-11-16T05:29:31.117Z,23.20
2022-11-16T05:31:58.266Z,21.17
2022-11-16T05:34:25.317Z,20.20
2022-11-16T05:36:51.705Z,20.90
2022-11-16T05:39:18.248Z,22.00
2022-11-16T05:41:44.897Z,18.30
2022-11-16T05:44:11.822Z,20.60
2022-11-16T05:46:38.404Z,20.03
2022-11-16T05:49:07.749Z,20.40
2022-11-16T05:51:39.098Z,18.23
2022-11-16T05:54:05.974Z,19.20
2022-11-16T05:56:34.165Z,19.27
2022-11-16T05:59:00.864Z,17.90
2022-11-16T06:01:27.382Z,19.03
2022-11-16T06:03:53.800Z,19.67
2022-11-16T06:06:20.574Z,19.53
2022-11-16T06:08:47.135Z,18.70
2022-11-16T06:11:14.121Z,20.83
2022-11-16T06:13:40.486Z,20.70
2022-11-16T06:16:07.211Z,19.00
2022-11-16T06:18:37.292Z,18.70
2022-11-16T06:21:03.982Z,18.10
2022-11-16T06:23:30.306Z,19.17
2022-11-16T06:25:56.913Z,19.30
2022-11-16T06:28:23.990Z,17.37
2022-11-16T06:30:50.400Z,18.73
2022-11-16T06:33:17.553Z,17.57
2022-11-16T06:35:44.522Z,17.53
2022-11-16T06:38:11.151Z,18.40
2022-11-16T06:40:38.302Z,18.50
2022-11-16T06:43:04.630Z,19.80
2022-11-16T06:45:31.036Z,19.10
2022-11-16T06:47:57.356Z,18.70
2022-11-16T06:50:23.729Z,18.60
2022-11-16T06:52:50.059Z,18.90
2022-11-16T06:55:16.702Z,21.07
2022-11-16T06:57:43.051Z,20.03
2022-11-16T07:00:10.888Z,21.37
2022-11-16T07:02:38.418Z,20.43
2022-11-16T07:05:06.256Z,19.67
2022-11-16T07:07:33.428Z,21.30
2022-11-16T07:10:00.239Z,21.33
2022-11-16T07:12:27.247Z,20.93
2022-11-16T07:14:53.622Z,20.67
2022-11-16T07:17:19.946Z,21.30
2022-11-16T07:19:46.268Z,20.40
2022-11-16T07:22:12.657Z,22.33
2022-11-16T07:24:38.988Z,22.03
2022-11-16T07:27:08.340Z,20.60
2022-11-16T07:29:34.752Z,20.77
2022-11-16T07:32:01.122Z,19.70
2022-11-16T07:34:27.460Z,21.97
2022-11-16T07:36:53.834Z,20.50
2022-11-16T07:39:21.785Z,20.30
2022-11-16T07:41:50.303Z,21.00
2022-11-16T07:44:16.631Z,20.70
2022-11-16T07:46:47.904Z,20.73
2022-11-16T07:49:16.460Z,22.37
2022-11-16T07:51:43.531Z,22.03
2022-11-16T07:54:13.829Z,22.03
2022-11-16T07:56:41.357Z,22.80
2022-11-16T07:59:08.107Z,21.53
2022-11-16T08:01:34.875Z,21.17
2022-11-16T08:04:04.193Z,21.63
2022-11-16T08:06:32.150Z,21.50
2022-11-16T08:08:59.302Z,21.77
2022-11-16T08:11:26.564Z,21.60
2022-11-16T08:13:53.085Z,21.53
2022-11-16T08:16:21.835Z,21.03
2022-11-16T08:18:48.685Z,22.60
2022-11-16T08:21:16.699Z,22.03
2022-11-16T08:23:44.842Z,23.30
2022-11-16T08:26:15.307Z,22.90
2022-11-16T08:28:46.658Z,21.00
2022-11-16T08:31:19.409Z,21.60
2022-11-16T08:33:49.033Z,22.37
2022-11-16T08:36:18.614Z,23.70
2022-11-16T08:38:46.490Z,22.10
2022-11-16T08:41:13.881Z,23.33
2022-11-16T08:43:40.682Z,23.00
2022-11-16T08:46:09.051Z,23.87
2022-11-16T08:48:37.002Z,22.43
2022-11-16T08:51:17.569Z,22.63
2022-11-16T08:53:44.718Z,23.67
2022-11-16T08:56:13.605Z,21.50
2022-11-16T08:58:46.651Z,22.70
2022-11-16T09:01:15.908Z,21.47
2022-11-16T09:03:42.646Z,23.10
2022-11-16T09:06:10.291Z,20.70
2022-11-16T09:08:38.319Z,21.70
2022-11-16T09:11:06.394Z,24.20
2022-11-16T09:13:32.984Z,23.80
2022-11-16T09:16:00.461Z,21.97
2022-11-16T09:18:28.086Z,22.53
2022-11-16T09:20:55.673Z,23.10
2022-11-16T09:23:25.498Z,23.27
2022-11-16T09:25:53.480Z,21.70
2022-11-16T09:28:21.454Z,21.73
2022-11-16T09:30:50.812Z,23.37
2022-11-16T09:33:17.439Z,22.40
2022-11-16T09:35:44.002Z,21.77
2022-11-16T09:38:12.704Z,22.90
2022-11-16T09:40:46.230Z,22.53
2022-11-16T09:43:39.556Z,21.47
2022-11-16T09:46:23.861Z,21.67
2022-11-16T09:48:51.029Z,21.90
2022-11-16T09:51:21.020Z,22.83
2022-11-16T09:53:58.269Z,21.87
2022-11-16T09:56:27.446Z,22.50
2022-11-16T09:59:13.593Z,23.07
2022-11-16T10:02:19.558Z,22.20
2022-11-16T10:04:58.620Z,21.40
2022-11-16T10:07:36.395Z,22.27
2022-11-16T10:10:02.947Z,22.90
2022-11-16T10:12:46.587Z,22.70
2022-11-16T10:15:31.010Z,20.80
2022-11-16T10:18:28.914Z,24.80
2022-11-16T10:20:58.110Z,22.77
2022-11-16T10:23:45.405Z,26.07
2022-11-16T10:26:24.000Z,22.27
2022-11-16T10:28:56.497Z,23.60
2022-11-16T10:31:53.197Z,22.43
2022-11-16T10:34:24.935Z,24.47
2022-11-16T10:36:54.896Z,22.83
2022-11-16T10:39:21.777Z,24.60
2022-11-16T10:41:50.669Z,23.80
2022-11-16T10:44:38.864Z,24.23
2022-11-16T10:47:16.947Z,26.00
2022-11-16T10:50:16.871Z,25.50
2022-11-16T10:52:43.279Z,26.10
2022-11-16T10:55:18.266Z,24.30
2022-11-16T10:58:02.632Z,25.10
2022-11-16T11:00:41.329Z,24.20
2022-11-16T11:03:09.559Z,25.00
2022-11-16T11:05:36.662Z,23.63
2022-11-16T11:08:06.496Z,23.60
2022-11-16T11:10:37.692Z,25.97
2022-11-16T11:13:10.181Z,23.63
2022-11-16T11:15:42.275Z,24.70
2022-11-16T11:18:23.830Z,24.77
2022-11-16T11:21:05.311Z,22.67
2022-11-16T11:23:46.772Z,24.17
2022-11-16T11:26:35.817Z,22.53
2022-11-16T11:29:22.198Z,25.90
2022-11-16T11:32:04.043Z,25.60
2022-11-16T11:34:34.900Z,23.60
2022-11-16T11:37:03.757Z,24.50
2022-11-16T11:39:34.026Z,25.50
2022-11-16T11:42:14.427Z,26.03
2022-11-16T11:44:47.415Z,25.33
2022-11-16T11:47:57.302Z,23.40
2022-11-16T11:50:40.217Z,23.57
2022-11-16T11:53:21.011Z,24.40
2022-11-16T11:55:57.682Z,23.17
2022-11-16T11:58:32.983Z,24.70
2022-11-16T12:01:33.600Z,22.97
2022-11-16T12:04:32.864Z,25.70
2022-11-16T12:07:32.121Z,23.20
2022-11-16T12:10:46.815Z,25.47
2022-11-16T12:13:39.897Z,24.43
2022-11-16T12:16:20.362Z,25.23
2022-11-16T12:19:16.882Z,28.77
2022-11-16T12:22:03.122Z,23.60
2022-11-16T12:24:49.467Z,24.50
2022-11-16T12:27:26.906Z,22.83
2022-11-16T12:30:16.415Z,24.67
2022-11-16T12:32:58.294Z,25.50
2022-11-16T12:35:27.782Z,24.80
2022-11-16T12:38:09.331Z,25.70
2022-11-16T12:41:16.418Z,25.37
2022-11-16T12:44:02.757Z,23.90
2022-11-16T12:46:54.107Z,24.43
2022-11-16T12:50:00.073Z,25.20
2022-11-16T12:52:41.379Z,25.47
2022-11-16T12:55:33.243Z,25.07
2022-11-16T12:58:02.936Z,25.33
2022-11-16T13:00:40.947Z,26.77
2022-11-16T13:03:28.219Z,26.80
2022-11-16T13:06:00.065Z,26.07
2022-11-16T13:08:38.073Z,28.10
2022-11-16T13:11:17.155Z,26.50
2022-11-16T13:13:51.398Z,25.53
2022-11-16T13:16:20.460Z,25.33
2022-11-16T13:18:47.227Z,25.27
2022-11-16T13:21:25.773Z,32.10
2022-11-16T13:24:15.809Z,27.50
2022-11-16T13:26:56.152Z,26.63
2022-11-16T13:29:34.055Z,27.57
2022-11-16T13:32:08.761Z,28.40
2022-11-16T13:34:38.876Z,27.10
2022-11-16T13:37:39.299Z,27.47
2022-11-16T13:40:05.588Z,27.13
2022-11-16T13:42:34.542Z,27.00
2022-11-16T13:45:20.545Z,26.20
2022-11-16T13:47:55.948Z,27.30
2022-11-16T13:50:33.136Z,26.53
2022-11-16T13:56:15.996Z,25.07
2022-11-16T13:58:49.496Z,27.73
2022-11-16T14:01:17.439Z,26.80
2022-11-16T14:03:45.160Z,26.30
2022-11-16T14:06:23.800Z,27.17
2022-11-16T14:08:57.799Z,28.10
2022-11-16T14:11:34.688Z,26.83
2022-11-16T14:14:05.602Z,28.67
2022-11-16T14:16:43.567Z,26.67
2022-11-16T14:19:51.899Z,27.07
2022-11-16T14:22:21.242Z,24.13
2022-11-16T14:25:00.486Z,25.20
2022-11-16T14:28:09.929Z,26.10
2022-11-16T14:30:52.471Z,23.60
2022-11-16T14:33:31.500Z,23.30
2022-11-16T14:35:59.097Z,21.30
2022-11-16T14:38:41.555Z,20.83
2022-11-16T14:41:23.376Z,20.50
2022-11-16T14:43:54.194Z,21.30
2022-11-16T14:46:23.528Z,18.37
2022-11-16T14:48:50.510Z,17.77
2022-11-16T14:51:27.171Z,19.10
2022-11-16T14:53:59.202Z,17.53
2022-11-16T14:56:25.642Z,21.00
2022-11-16T14:58:52.962Z,19.67
2022-11-16T15:01:22.628Z,19.40
2022-11-16T15:04:09.176Z,18.13
2022-11-16T15:06:42.024Z,17.87
2022-11-16T15:09:17.390Z,18.87
2022-11-16T15:12:07.329Z,19.20
2022-11-16T15:14:40.682Z,18.73
2022-11-16T15:17:08.922Z,18.97
2022-11-16T15:19:35.770Z,18.47
2022-11-16T15:22:04.430Z,19.90
2022-11-16T15:24:35.032Z,18.87
2022-11-16T15:27:25.590Z,20.40
2022-11-16T15:29:52.138Z,19.03
2022-11-16T15:32:18.571Z,20.53
2022-11-16T15:34:53.013Z,20.20
2022-11-16T15:37:31.135Z,20.10
2022-11-16T15:39:59.894Z,20.80
2022-11-16T15:42:28.153Z,19.97
2022-11-16T15:44:55.538Z,22.30
2022-11-16T15:47:22.989Z,22.33
2022-11-16T15:49:52.977Z,22.07
2022-11-16T15:52:50.270Z,22.00
2022-11-16T15:55:38.543Z,23.60
2022-11-16T15:58:25.708Z,22.40
2022-11-16T16:00:53.535Z,22.83
2022-11-16T16:03:28.431Z,23.00
2022-11-16T16:05:55.124Z,21.13
2022-11-16T16:08:29.878Z,22.30
2022-11-16T16:11:05.126Z,22.27
2022-11-16T16:13:37.650Z,22.73
2022-11-16T16:16:36.166Z,21.30
2022-11-16T16:19:24.122Z,19.83
2022-11-16T16:21:50.830Z,19.93
2022-11-16T16:24:44.354Z,20.67
2022-11-16T16:27:18.437Z,18.23
2022-11-16T16:29:58.369Z,19.07
2022-11-16T16:32:26.205Z,16.87
2022-11-16T16:34:57.590Z,17.50
2022-11-16T16:37:26.839Z,17.23
2022-11-16T16:39:53.332Z,18.87
2022-11-16T16:42:19.888Z,15.53
2022-11-16T16:44:47.775Z,17.47
2022-11-16T16:47:14.953Z,17.40
2022-11-16T16:49:41.716Z,16.50
2022-11-16T16:52:08.416Z,16.57
2022-11-16T16:54:34.771Z,15.73
2022-11-16T16:57:03.747Z,16.43
2022-11-16T16:59:30.963Z,16.07
2022-11-16T17:01:58.522Z,14.40
2022-11-16T17:04:25.397Z,16.43
2022-11-16T17:06:52.652Z,15.83
2022-11-16T17:09:19.082Z,14.67
2022-11-16T17:11:47.367Z,13.50
2022-11-16T17:14:13.738Z,14.07
2022-11-16T17:16:40.154Z,14.80
2022-11-16T17:19:06.588Z,14.03
2022-11-16T17:21:32.931Z,13.80
2022-11-16T17:23:59.277Z,12.90
2022-11-16T17:26:29.174Z,13.90
2022-11-16T17:28:57.034Z,12.40
2022-11-16T17:31:24.570Z,13.10
2022-11-16T17:33:51.395Z,12.23
2022-11-16T17:36:17.883Z,11.50
2022-11-16T17:38:45.012Z,12.33
2022-11-16T17:41:16.357Z,13.17
2022-11-16T17:43:44.909Z,12.37
2022-11-16T17:46:16.154Z,13.30
2022-11-16T17:48:44.269Z,14.50
2022-11-16T17:51:11.624Z,12.90
2022-11-16T17:53:39.839Z,13.43
2022-11-16T17:56:06.821Z,11.80
2022-11-16T17:58:34.335Z,11.20
2022-11-16T18:01:00.696Z,11.80
2022-11-16T18:03:28.342Z,11.90
2022-11-16T18:06:09.119Z,12.07
2022-11-16T18:08:36.674Z,10.30
2022-11-16T18:11:09.604Z,10.80
2022-11-16T18:13:37.177Z,10.17
2022-11-16T18:16:07.894Z,9.93
2022-11-16T18:18:34.469Z,10.13
2022-11-16T18:21:01.327Z,9.70
2022-11-16T18:23:29.031Z,10.90
2022-11-16T18:25:55.836Z,9.10
2022-11-16T18:28:22.966Z,8.77
2022-11-16T18:30:49.489Z,9.20
2022-11-16T18:33:16.449Z,9.60
2022-11-16T18:35:43.486Z,9.27
2022-11-16T18:38:13.064Z,9.60
2022-11-16T18:40:40.569Z,9.07
2022-11-16T18:43:12.527Z,8.67
2022-11-16T18:45:38.895Z,9.13
2022-11-16T18:48:05.250Z,9.30
2022-11-16T18:50:31.611Z,8.90
2022-11-16T18:52:57.950Z,7.60
2022-11-16T18:55:24.315Z,9.20
2022-11-16T18:57:50.634Z,8.30
2022-11-16T19:00:19.358Z,7.80
2022-11-16T19:02:45.723Z,8.07
2022-11-16T19:05:12.083Z,7.70
2022-11-16T19:07:38.581Z,9.23
2022-11-16T19:10:05.383Z,8.70
2022-11-16T19:12:31.697Z,8.53
2022-11-16T19:14:58.410Z,9.70
2022-11-16T19:17:25.120Z,9.30
2022-11-16T19:19:51.913Z,9.87
2022-11-16T19:22:19.561Z,9.80
2022-11-16T19:24:46.515Z,9.80
2022-11-16T19:27:12.894Z,10.37
2022-11-16T19:29:39.245Z,9.37
2022-11-16T19:32:05.585Z,11.67
2022-11-16T19:34:33.606Z,9.40
2022-11-16T19:37:00.122Z,11.47
2022-11-16T19:39:26.884Z,10.20
2022-11-16T19:41:53.207Z,10.10
2022-11-16T19:44:20.408Z,9.80
2022-11-16T19:46:46.758Z,10.80
2022-11-16T19:49:20.029Z,10.03
2022-11-16T19:51:46.698Z,10.27
2022-11-16T19:54:14.750Z,10.43
2022-11-16T19:56:41.970Z,10.23
2022-11-16T19:59:08.331Z,10.23
2022-11-16T20:01:35.147Z,10.53
2022-11-16T20:04:03.891Z,9.07
2022-11-16T20:06:36.197Z,10.20
2022-11-16T20:09:11.515Z,10.37
2022-11-16T20:11:40.433Z,11.00
2022-11-16T20:14:09.110Z,9.20
2022-11-16T20:16:39.374Z,9.50
2022-11-16T20:19:07.601Z,10.40
2022-11-16T20:21:36.796Z,10.23
2022-11-16T20:24:07.124Z,10.03
2022-11-16T20:26:35.356Z,10.07
2022-11-16T20:29:01.873Z,9.87
2022-11-16T20:31:30.485Z,9.90
2022-11-16T20:34:01.995Z,10.07
2022-11-16T20:36:29.983Z,10.90
2022-11-16T20:38:58.185Z,11.43
2022-11-16T20:41:26.991Z,10.27
2022-11-16T20:43:55.391Z,10.30
2022-11-16T20:46:23.886Z,10.90
2022-11-16T20:48:50.525Z,10.23
2022-11-16T20:51:19.170Z,9.80
2022-11-16T20:53:47.513Z,10.27
2022-11-16T20:56:15.577Z,10.27
2022-11-16T20:58:41.907Z,9.73
2022-11-16T21:01:12.480Z,10.47
2022-11-16T21:03:39.733Z,10.40
2022-11-16T21:06:10.113Z,10.20
2022-11-16T21:08:37.911Z,10.13
2022-11-16T21:11:16.067Z,9.67
2022-11-16T21:14:00.926Z,9.30
2022-11-16T21:16:27.240Z,9.03
2022-11-16T21:18:55.347Z,8.57
2022-11-16T21:21:21.723Z,8.70
2022-11-16T21:23:51.706Z,8.97
2022-11-16T21:26:25.051Z,9.27
2022-11-16T21:28:51.990Z,8.67
2022-11-16T21:31:21.115Z,8.77
2022-11-16T21:33:48.254Z,7.90
2022-11-16T21:36:17.625Z,8.20
2022-11-16T21:38:44.433Z,8.70
2022-11-16T21:41:12.238Z,8.60
2022-11-16T21:43:40.482Z,7.90
2022-11-16T21:46:10.736Z,7.60
2022-11-16T21:48:37.566Z,7.43
2022-11-16T21:51:06.467Z,7.30
2022-11-16T21:53:33.996Z,7.57
2022-11-16T21:56:00.834Z,6.83
2022-11-16T21:58:27.194Z,7.97
2022-11-16T22:00:58.007Z,6.27
2022-11-16T22:03:25.973Z,6.50
2022-11-16T22:06:12.136Z,6.60
2022-11-16T22:08:38.592Z,6.67
2022-11-16T22:11:05.342Z,5.50
2022-11-16T22:13:31.812Z,6.27
2022-11-16T22:15:58.456Z,5.60
2022-11-16T22:18:24.759Z,5.93
2022-11-16T22:20:51.137Z,6.70
2022-11-16T22:23:22.473Z,5.83
2022-11-16T22:25:49.763Z,6.13
2022-11-16T22:28:21.019Z,5.33
2022-11-16T22:30:51.598Z,5.13
2022-11-16T22:33:18.609Z,5.77
2022-11-16T22:35:47.333Z,5.80
2022-11-16T22:38:13.636Z,6.00
2022-11-16T22:40:40.000Z,5.20
2022-11-16T22:43:06.355Z,4.90
2022-11-16T22:45:32.716Z,5.43
2022-11-16T22:47:59.095Z,5.03
2022-11-16T22:50:25.610Z,5.40
2022-11-16T22:52:51.943Z,5.23
2022-11-16T22:55:18.314Z,5.43
2022-11-16T22:57:44.676Z,5.17
2022-11-16T23:00:12.313Z,4.73
2022-11-16T23:02:38.630Z,5.47
2022-11-16T23:05:05.375Z,4.97
2022-11-16T23:07:31.846Z,4.53
2022-11-16T23:09:58.316Z,5.17
2022-11-16T23:12:42.931Z,5.37
2022-11-16T23:15:30.926Z,4.93
2022-11-16T23:17:57.487Z,5.20
2022-11-16T23:20:42.523Z,4.80
2022-11-16T23:23:36.626Z,4.50
2022-11-16T23:26:25.147Z,5.07
2022-11-16T23:28:51.461Z,4.33
2022-11-16T23:31:17.824Z,4.37
2022-11-16T23:33:44.161Z,4.80
2022-11-16T23:36:13.993Z,4.10
2022-11-16T23:38:40.652Z,4.60
2022-11-16T23:41:30.686Z,5.40
2022-11-16T23:43:59.960Z,4.97
2022-11-16T23:46:31.236Z,4.30
2022-11-16T23:48:58.276Z,4.67
2022-11-16T23:51:25.153Z,4.80
2022-11-16T23:53:52.923Z,4.50
2022-11-16T23:56:21.551Z,5.10
2022-11-16T23:58:48.317Z,4.60
